createdAt,value
2019-03-04T00:00:57.774Z,12.05
2019-03-04T00:01:57.797Z,12.05
2019-03-04T00:02:57.820Z,12.00
2019-03-04T00:03:57.837Z,11.97
2019-03-04T00:04:57.876Z,12.02
2019-03-04T00:05:57.895Z,12.07
2019-03-04T00:06:57.917Z,12.00
2019-03-04T00:07:57.929Z,12.07
2019-03-04T00:08:57.964Z,11.99
2019-03-04T00:09:57.979Z,12.02
2019-03-04T00:10:58.003Z,12.02
2019-03-04T00:11:58.028Z,12.02
2019-03-04T00:12:58.047Z,12.00
2019-03-04T00:13:58.069Z,11.99
2019-03-04T00:14:58.091Z,12.03
2019-03-04T00:15:58.127Z,12.00
2019-03-04T00:16:58.177Z,11.99
2019-03-04T00:17:58.166Z,12.00
2019-03-04T00:18:58.188Z,11.97
2019-03-04T00:19:58.253Z,11.99
2019-03-04T00:20:58.229Z,11.99
2019-03-04T00:21:58.262Z,12.03
2019-03-04T00:22:58.273Z,12.00
2019-03-04T00:23:58.294Z,12.02
2019-03-04T00:24:58.375Z,12.02
2019-03-04T00:25:58.356Z,12.00
2019-03-04T00:26:58.366Z,12.00
2019-03-04T00:27:58.402Z,12.03
2019-03-04T00:28:58.414Z,12.02
2019-03-04T00:29:58.438Z,12.00
2019-03-04T00:30:58.463Z,12.00
2019-03-04T00:31:58.482Z,11.91
2019-03-04T00:32:58.506Z,11.97
2019-03-04T00:33:58.528Z,11.91
2019-03-04T00:34:58.552Z,11.96
2019-03-04T00:35:58.577Z,11.96
2019-03-04T00:36:58.629Z,11.93
2019-03-04T00:37:59.321Z,11.99
2019-03-04T00:38:58.654Z,11.88
2019-03-04T00:39:58.668Z,11.91
2019-03-04T00:40:58.690Z,11.96
2019-03-04T00:41:58.720Z,11.88
2019-03-04T00:42:58.737Z,11.91
2019-03-04T00:43:58.761Z,11.89
2019-03-04T00:44:58.777Z,11.93
2019-03-04T00:45:58.815Z,11.81
2019-03-04T00:46:58.823Z,11.81
2019-03-04T00:47:58.864Z,11.88
2019-03-04T00:48:58.917Z,11.88
2019-03-04T00:49:58.894Z,11.83
2019-03-04T00:50:58.918Z,11.81
2019-03-04T00:51:58.936Z,11.91
2019-03-04T00:52:58.961Z,11.89
2019-03-04T00:53:58.990Z,11.91
2019-03-04T00:54:59.009Z,11.88
2019-03-04T00:55:59.029Z,11.81
2019-03-04T00:56:59.057Z,11.78
2019-03-04T00:57:59.105Z,11.80
2019-03-04T00:58:59.104Z,11.86
2019-03-04T00:59:59.118Z,11.88
2019-03-04T01:00:59.143Z,11.83
2019-03-04T01:01:59.171Z,11.81
2019-03-04T01:02:59.200Z,11.81
2019-03-04T01:03:59.215Z,11.80
2019-03-04T01:04:59.241Z,11.83
2019-03-04T01:05:59.253Z,11.85
2019-03-04T01:06:59.281Z,11.86
2019-03-04T01:07:59.310Z,11.80
2019-03-04T01:08:59.324Z,11.83
2019-03-04T01:09:59.349Z,11.80
2019-03-04T01:10:59.393Z,11.86
2019-03-04T01:11:59.401Z,11.85
2019-03-04T01:12:59.419Z,11.80
2019-03-04T01:13:59.463Z,11.80
2019-03-04T01:14:59.498Z,11.83
2019-03-04T01:15:59.487Z,11.86
2019-03-04T01:16:59.515Z,11.81
2019-03-04T01:17:59.532Z,11.85
2019-03-04T01:18:59.560Z,11.80
2019-03-04T01:19:59.575Z,11.83
2019-03-04T01:20:59.601Z,11.80
2019-03-04T01:21:59.624Z,11.88
2019-03-04T01:22:59.642Z,11.88
2019-03-04T01:23:59.668Z,11.89
2019-03-04T01:24:59.694Z,11.78
2019-03-04T01:25:59.713Z,11.88
2019-03-04T01:26:59.753Z,11.88
2019-03-04T01:27:59.784Z,11.89
2019-03-04T01:28:59.781Z,11.83
2019-03-04T01:29:59.814Z,11.89
2019-03-04T01:30:59.832Z,11.80
2019-03-04T01:31:59.849Z,11.88
2019-03-04T01:32:59.870Z,11.93
2019-03-04T01:33:59.898Z,11.80
2019-03-04T01:34:59.918Z,11.91
2019-03-04T01:35:59.940Z,11.95
2019-03-04T01:36:59.971Z,11.95
2019-03-04T01:37:59.982Z,11.83
2019-03-04T01:39:00.019Z,11.81
2019-03-04T01:40:00.035Z,11.80
2019-03-04T01:41:00.057Z,11.89
2019-03-04T01:42:00.091Z,11.81
2019-03-04T01:43:00.117Z,11.85
2019-03-04T01:44:00.135Z,11.86
2019-03-04T01:45:00.319Z,11.81
2019-03-04T01:46:00.167Z,11.86
2019-03-04T01:47:00.192Z,11.86
2019-03-04T01:48:00.223Z,11.88
2019-03-04T01:49:00.259Z,11.81
2019-03-04T01:50:00.334Z,11.71
2019-03-04T01:51:00.280Z,11.62
2019-03-04T01:52:00.333Z,11.78
2019-03-04T01:53:00.332Z,11.74
2019-03-04T01:54:00.357Z,11.77
2019-03-04T01:55:00.370Z,11.80
2019-03-04T01:56:00.394Z,11.73
2019-03-04T01:57:00.437Z,11.73
2019-03-04T01:58:00.452Z,11.73
2019-03-04T01:59:00.475Z,11.73
2019-03-04T02:00:00.498Z,11.74
2019-03-04T02:01:00.518Z,11.73
2019-03-04T02:02:00.539Z,11.78
2019-03-04T02:03:00.566Z,11.68
2019-03-04T02:04:00.582Z,11.74
2019-03-04T02:05:00.599Z,11.62
2019-03-04T02:06:00.638Z,11.63
2019-03-04T02:07:00.665Z,11.56
2019-03-04T02:08:00.679Z,11.62
2019-03-04T02:09:00.699Z,11.60
2019-03-04T02:10:00.717Z,11.65
2019-03-04T02:11:00.745Z,11.62
2019-03-04T02:12:00.761Z,11.60
2019-03-04T02:13:00.786Z,11.65
2019-03-04T02:14:00.807Z,11.62
2019-03-04T02:15:00.834Z,11.62
2019-03-04T02:16:00.856Z,11.49
2019-03-04T02:17:00.874Z,11.49
2019-03-04T02:18:00.906Z,11.52
2019-03-04T02:19:00.931Z,11.48
2019-03-04T02:20:00.942Z,11.51
2019-03-04T02:21:00.970Z,11.45
2019-03-04T02:22:00.998Z,11.48
2019-03-04T02:23:01.012Z,11.45
2019-03-04T02:24:01.046Z,11.53
2019-03-04T02:25:01.070Z,11.45
2019-03-04T02:26:01.081Z,11.45
2019-03-04T02:27:01.120Z,11.44
2019-03-04T02:28:01.136Z,11.44
2019-03-04T02:29:01.151Z,11.45
2019-03-04T02:30:01.171Z,11.48
2019-03-04T02:31:01.195Z,11.56
2019-03-04T02:32:01.219Z,11.43
2019-03-04T02:33:01.249Z,11.55
2019-03-04T02:34:01.265Z,11.41
2019-03-04T02:35:01.287Z,11.48
2019-03-04T02:36:01.314Z,11.44
2019-03-04T02:37:01.365Z,11.41
2019-03-04T02:38:01.364Z,11.37
2019-03-04T02:39:01.376Z,11.48
2019-03-04T02:40:01.400Z,11.41
2019-03-04T02:41:01.437Z,11.48
2019-03-04T02:42:01.444Z,11.38
2019-03-04T02:43:01.473Z,11.44
2019-03-04T02:44:01.499Z,11.38
2019-03-04T02:45:01.514Z,11.33
2019-03-04T02:46:01.540Z,11.40
2019-03-04T02:47:01.566Z,11.37
2019-03-04T02:48:01.589Z,11.48
2019-03-04T02:49:01.614Z,11.41
2019-03-04T02:50:01.662Z,11.41
2019-03-04T02:51:01.653Z,11.40
2019-03-04T02:52:01.673Z,11.34
2019-03-04T02:53:01.696Z,11.38
2019-03-04T02:54:01.715Z,11.41
2019-03-04T02:55:01.753Z,11.33
2019-03-04T02:56:01.767Z,11.30
2019-03-04T02:57:01.803Z,11.44
2019-03-04T02:58:01.808Z,11.26
2019-03-04T02:59:01.828Z,11.41
2019-03-04T03:00:01.870Z,11.34
2019-03-04T03:01:01.888Z,11.35
2019-03-04T03:02:01.901Z,11.43
2019-03-04T03:03:01.925Z,11.38
2019-03-04T03:04:01.952Z,11.34
2019-03-04T03:05:01.978Z,11.33
2019-03-04T03:06:01.985Z,11.31
2019-03-04T03:07:02.020Z,11.31
2019-03-04T03:08:02.039Z,11.33
2019-03-04T03:09:02.068Z,11.35
2019-03-04T03:10:02.081Z,11.38
2019-03-04T03:11:02.107Z,11.34
2019-03-04T03:12:02.124Z,11.34
2019-03-04T03:13:02.152Z,11.35
2019-03-04T03:14:02.175Z,11.33
2019-03-04T03:15:02.193Z,11.23
2019-03-04T03:16:02.217Z,11.26
2019-03-04T03:17:02.247Z,11.25
2019-03-04T03:18:02.265Z,11.31
2019-03-04T03:19:02.284Z,11.27
2019-03-04T03:20:02.324Z,11.31
2019-03-04T03:21:02.331Z,11.25
2019-03-04T03:22:02.350Z,11.33
2019-03-04T03:23:02.377Z,11.26
2019-03-04T03:24:02.421Z,11.19
2019-03-04T03:25:02.418Z,11.30
2019-03-04T03:26:02.443Z,11.23
2019-03-04T03:27:02.477Z,11.35
2019-03-04T03:28:02.481Z,11.23
2019-03-04T03:29:02.516Z,11.33
2019-03-04T03:30:02.540Z,11.25
2019-03-04T03:31:02.569Z,11.38
2019-03-04T03:32:02.605Z,11.23
2019-03-04T03:33:02.692Z,11.33
2019-03-04T03:34:02.634Z,11.26
2019-03-04T03:35:07.439Z,11.34
2019-03-04T03:36:02.684Z,11.30
2019-03-04T03:37:02.695Z,11.31
2019-03-04T03:38:02.789Z,11.35
2019-03-04T03:39:02.742Z,11.25
2019-03-04T03:40:02.774Z,11.35
2019-03-04T03:41:02.836Z,11.31
2019-03-04T03:42:02.821Z,11.43
2019-03-04T03:43:02.827Z,11.34
2019-03-04T03:44:02.857Z,11.33
2019-03-04T03:45:02.878Z,11.31
2019-03-04T03:46:02.896Z,11.30
2019-03-04T03:47:02.918Z,11.31
2019-03-04T03:48:02.955Z,11.38
2019-03-04T03:49:02.975Z,11.40
2019-03-04T03:50:02.985Z,11.44
2019-03-04T03:51:03.009Z,11.31
2019-03-04T03:52:03.041Z,11.27
2019-03-04T03:53:03.059Z,11.34
2019-03-04T03:54:03.083Z,11.31
2019-03-04T03:55:03.105Z,11.26
2019-03-04T03:56:03.121Z,11.31
2019-03-04T03:57:03.148Z,11.34
2019-03-04T03:58:03.169Z,11.27
2019-03-04T03:59:03.192Z,11.27
2019-03-04T04:00:03.211Z,11.26
2019-03-04T04:01:03.241Z,11.15
2019-03-04T04:02:03.263Z,11.27
2019-03-04T04:03:03.279Z,11.23
2019-03-04T04:04:03.301Z,11.20
2019-03-04T04:05:03.325Z,11.25
2019-03-04T04:06:03.353Z,11.20
2019-03-04T04:07:03.378Z,11.22
2019-03-04T04:08:03.398Z,11.19
2019-03-04T04:09:03.417Z,11.16
2019-03-04T04:10:03.433Z,11.15
2019-03-04T04:11:03.457Z,11.19
2019-03-04T04:12:03.484Z,11.16
2019-03-04T04:13:03.526Z,11.15
2019-03-04T04:14:03.554Z,11.16
2019-03-04T04:15:03.562Z,11.16
2019-03-04T04:16:03.578Z,11.16
2019-03-04T04:17:03.594Z,11.07
2019-03-04T04:18:03.619Z,11.10
2019-03-04T04:19:03.644Z,11.07
2019-03-04T04:20:03.664Z,11.13
2019-03-04T04:21:03.692Z,11.20
2019-03-04T04:22:03.934Z,11.10
2019-03-04T04:23:03.729Z,11.05
2019-03-04T04:24:04.248Z,11.02
2019-03-04T04:25:03.778Z,11.07
2019-03-04T04:26:03.803Z,11.08
2019-03-04T04:27:03.824Z,11.08
2019-03-04T04:28:03.844Z,11.02
2019-03-04T04:29:03.874Z,11.00
2019-03-04T04:30:03.894Z,11.05
2019-03-04T04:31:03.913Z,11.00
2019-03-04T04:32:03.935Z,11.04
2019-03-04T04:33:03.960Z,11.01
2019-03-04T04:34:04.112Z,10.95
2019-03-04T04:35:03.997Z,10.94
2019-03-04T04:36:04.022Z,10.95
2019-03-04T04:37:04.056Z,11.08
2019-03-04T04:38:04.064Z,11.07
2019-03-04T04:39:04.088Z,11.08
2019-03-04T04:40:04.104Z,11.08
2019-03-04T04:41:04.136Z,11.10
2019-03-04T04:42:04.167Z,10.98
2019-03-04T04:43:04.177Z,11.01
2019-03-04T04:44:04.218Z,11.15
2019-03-04T04:45:04.229Z,11.07
2019-03-04T04:46:04.254Z,11.07
2019-03-04T04:47:04.271Z,11.02
2019-03-04T04:48:04.290Z,11.12
2019-03-04T04:49:04.319Z,11.02
2019-03-04T04:50:04.343Z,11.04
2019-03-04T04:51:04.383Z,11.07
2019-03-04T04:52:04.650Z,11.15
2019-03-04T04:53:04.413Z,11.07
2019-03-04T04:54:04.433Z,11.19
2019-03-04T04:55:04.447Z,11.15
2019-03-04T04:56:04.474Z,11.19
2019-03-04T04:57:04.497Z,11.13
2019-03-04T04:58:04.518Z,11.18
2019-03-04T04:59:04.541Z,11.15
2019-03-04T05:00:04.560Z,11.13
2019-03-04T05:01:04.590Z,11.13
2019-03-04T05:02:04.619Z,11.19
2019-03-04T05:03:04.628Z,11.16
2019-03-04T05:04:04.652Z,11.20
2019-03-04T05:05:04.670Z,11.23
2019-03-04T05:06:04.697Z,11.30
2019-03-04T05:07:04.724Z,11.22
2019-03-04T05:08:04.738Z,11.16
2019-03-04T05:09:04.760Z,11.22
2019-03-04T05:10:04.780Z,11.19
2019-03-04T05:11:04.811Z,11.23
2019-03-04T05:12:04.833Z,11.23
2019-03-04T05:13:04.854Z,11.26
2019-03-04T05:14:04.873Z,11.33
2019-03-04T05:15:04.913Z,11.31
2019-03-04T05:16:04.923Z,11.30
2019-03-04T05:17:04.935Z,11.26
2019-03-04T05:18:04.967Z,11.22
2019-03-04T05:19:04.987Z,11.22
2019-03-04T05:20:05.017Z,11.31
2019-03-04T05:21:05.031Z,11.27
2019-03-04T05:22:05.051Z,11.35
2019-03-04T05:23:05.077Z,11.33
2019-03-04T05:24:05.126Z,11.31
2019-03-04T05:25:05.141Z,11.27
2019-03-04T05:26:05.140Z,11.25
2019-03-04T05:27:05.169Z,11.26
2019-03-04T05:28:05.192Z,11.33
2019-03-04T05:29:05.212Z,11.31
2019-03-04T05:30:05.230Z,11.26
2019-03-04T05:31:05.261Z,11.30
2019-03-04T05:32:05.280Z,11.31
2019-03-04T05:33:05.302Z,11.22
2019-03-04T05:34:05.330Z,11.27
2019-03-04T05:35:05.348Z,11.25
2019-03-04T05:36:05.376Z,11.30
2019-03-04T05:37:05.389Z,11.22
2019-03-04T05:38:05.414Z,11.35
2019-03-04T05:39:05.440Z,11.27
2019-03-04T05:40:05.460Z,11.25
2019-03-04T05:41:05.484Z,11.25
2019-03-04T05:42:05.505Z,11.31
2019-03-04T05:43:05.527Z,11.33
2019-03-04T05:44:05.550Z,11.34
2019-03-04T05:45:05.569Z,11.37
2019-03-04T05:46:05.593Z,11.38
2019-03-04T05:47:05.625Z,11.52
2019-03-04T05:48:07.622Z,11.37
2019-03-04T05:49:05.659Z,11.40
2019-03-04T05:50:05.689Z,11.38
2019-03-04T05:51:05.710Z,11.45
2019-03-04T05:52:05.733Z,11.37
2019-03-04T05:53:05.749Z,11.43
2019-03-04T05:54:05.777Z,11.44
2019-03-04T05:55:05.793Z,11.48
2019-03-04T05:56:05.827Z,11.33
2019-03-04T05:57:05.848Z,11.35
2019-03-04T05:58:05.867Z,11.44
2019-03-04T05:59:05.884Z,11.48
2019-03-04T06:00:05.906Z,11.45
2019-03-04T06:01:05.938Z,11.45
2019-03-04T06:02:05.957Z,11.41
2019-03-04T06:03:05.983Z,11.37
2019-03-04T06:04:05.996Z,11.37
2019-03-04T06:05:06.038Z,11.45
2019-03-04T06:06:06.043Z,11.38
2019-03-04T06:07:06.077Z,11.41
2019-03-04T06:08:06.092Z,11.41
2019-03-04T06:09:06.107Z,11.37
2019-03-04T06:10:06.137Z,11.35
2019-03-04T06:11:06.162Z,11.52
2019-03-04T06:12:06.181Z,11.52
2019-03-04T06:13:06.199Z,11.45
2019-03-04T06:14:06.237Z,11.48
2019-03-04T06:15:06.244Z,11.51
2019-03-04T06:16:06.270Z,11.51
2019-03-04T06:17:06.298Z,11.51
2019-03-04T06:18:06.318Z,11.49
2019-03-04T06:19:06.338Z,11.60
2019-03-04T06:20:06.359Z,11.65
2019-03-04T06:21:06.380Z,11.63
2019-03-04T06:22:06.404Z,11.45
2019-03-04T06:23:06.429Z,11.48
2019-03-04T06:24:06.456Z,11.53
2019-03-04T06:25:07.555Z,11.56
2019-03-04T06:26:06.494Z,11.51
2019-03-04T06:27:06.522Z,11.56
2019-03-04T06:28:06.554Z,11.49
2019-03-04T06:29:06.562Z,11.48
2019-03-04T06:30:06.586Z,11.43
2019-03-04T06:31:06.615Z,11.55
2019-03-04T06:32:06.628Z,11.44
2019-03-04T06:33:06.662Z,11.43
2019-03-04T06:34:06.682Z,11.41
2019-03-04T06:35:06.704Z,11.34
2019-03-04T06:36:06.732Z,11.31
2019-03-04T06:37:06.742Z,11.37
2019-03-04T06:38:06.770Z,11.31
2019-03-04T06:39:06.786Z,11.27
2019-03-04T06:40:06.813Z,11.27
2019-03-04T06:41:06.835Z,11.53
2019-03-04T06:42:06.859Z,11.40
2019-03-04T06:43:06.919Z,11.55
2019-03-04T06:44:06.908Z,11.41
2019-03-04T06:45:06.927Z,11.43
2019-03-04T06:46:06.950Z,11.44
2019-03-04T06:47:06.967Z,11.33
2019-03-04T06:48:06.991Z,11.40
2019-03-04T06:49:07.016Z,11.34
2019-03-04T06:50:07.042Z,11.41
2019-03-04T06:51:07.074Z,11.43
2019-03-04T06:52:07.083Z,11.41
2019-03-04T06:53:07.126Z,11.33
2019-03-04T06:54:07.134Z,11.33
2019-03-04T06:55:07.149Z,11.38
2019-03-04T06:56:07.177Z,11.41
2019-03-04T06:57:07.192Z,11.45
2019-03-04T06:58:07.224Z,11.55
2019-03-04T06:59:07.241Z,11.40
2019-03-04T07:00:07.264Z,11.53
2019-03-04T07:01:07.288Z,11.59
2019-03-04T07:02:07.309Z,11.43
2019-03-04T07:03:07.331Z,11.48
2019-03-04T07:04:07.390Z,11.44
2019-03-04T07:05:07.369Z,11.63
2019-03-04T07:06:07.403Z,11.68
2019-03-04T07:07:07.415Z,11.49
2019-03-04T07:08:07.447Z,11.53
2019-03-04T07:09:07.467Z,11.63
2019-03-04T07:10:07.492Z,11.53
2019-03-04T07:11:07.516Z,11.62
2019-03-04T07:12:07.534Z,11.65
2019-03-04T07:13:07.555Z,11.52
2019-03-04T07:14:07.591Z,11.51
2019-03-04T07:15:07.609Z,11.60
2019-03-04T07:16:07.634Z,11.56
2019-03-04T07:17:07.643Z,11.60
2019-03-04T07:18:07.669Z,11.63
2019-03-04T07:19:07.693Z,11.65
2019-03-04T07:20:07.719Z,11.63
2019-03-04T07:21:07.736Z,11.65
2019-03-04T07:22:07.802Z,11.65
2019-03-04T07:23:07.796Z,11.80
2019-03-04T07:24:07.799Z,11.80
2019-03-04T07:25:07.853Z,11.85
2019-03-04T07:26:07.878Z,11.80
2019-03-04T07:27:07.900Z,11.73
2019-03-04T07:28:07.909Z,11.83
2019-03-04T07:29:07.966Z,11.85
2019-03-04T07:30:07.944Z,11.85
2019-03-04T07:31:07.963Z,11.89
2019-03-04T07:32:07.980Z,11.77
2019-03-04T07:33:08.011Z,11.95
2019-03-04T07:34:08.028Z,11.96
2019-03-04T07:35:08.061Z,11.83
2019-03-04T07:36:08.234Z,11.91
2019-03-04T07:37:08.101Z,12.02
2019-03-04T07:38:08.121Z,11.99
2019-03-04T07:39:08.154Z,11.97
2019-03-04T07:40:08.184Z,11.89
2019-03-04T07:41:08.194Z,12.10
2019-03-04T07:42:08.211Z,12.03
2019-03-04T07:43:08.242Z,12.05
2019-03-04T07:44:08.267Z,12.02
2019-03-04T07:45:08.286Z,12.08
2019-03-04T07:46:08.307Z,12.00
2019-03-04T07:47:08.329Z,12.00
2019-03-04T07:48:08.355Z,12.02
2019-03-04T07:49:08.371Z,12.02
2019-03-04T07:50:08.397Z,11.99
2019-03-04T07:51:08.422Z,12.05
2019-03-04T07:52:08.441Z,12.08
2019-03-04T07:53:08.465Z,12.07
2019-03-04T07:54:08.492Z,12.10
2019-03-04T07:55:08.508Z,12.07
2019-03-04T07:56:08.534Z,12.10
2019-03-04T07:57:08.562Z,12.10
2019-03-04T07:58:08.580Z,12.05
2019-03-04T07:59:08.604Z,12.02
2019-03-04T08:00:08.647Z,11.99
2019-03-04T08:01:08.649Z,11.97
2019-03-04T08:02:08.669Z,12.11
2019-03-04T08:03:08.695Z,12.10
2019-03-04T08:04:08.714Z,12.07
2019-03-04T08:05:08.739Z,12.05
2019-03-04T08:06:08.761Z,12.02
2019-03-04T08:07:08.786Z,12.08
2019-03-04T08:08:08.809Z,12.03
2019-03-04T08:09:08.833Z,12.02
2019-03-04T08:10:08.864Z,12.11
2019-03-04T08:11:08.886Z,12.03
2019-03-04T08:12:08.902Z,12.14
2019-03-04T08:13:08.933Z,12.03
2019-03-04T08:14:08.946Z,12.05
2019-03-04T08:15:09.002Z,12.03
2019-03-04T08:16:08.994Z,12.03
2019-03-04T08:17:09.029Z,12.05
2019-03-04T08:18:09.039Z,12.02
2019-03-04T08:19:09.055Z,11.96
2019-03-04T08:20:09.097Z,11.97
2019-03-04T08:21:09.114Z,12.00
2019-03-04T08:22:09.137Z,12.00
2019-03-04T08:23:10.226Z,12.05
2019-03-04T08:24:09.172Z,12.03
2019-03-04T08:25:09.198Z,12.15
2019-03-04T08:26:09.234Z,12.10
2019-03-04T08:27:09.247Z,12.03
2019-03-04T08:28:09.263Z,12.05
2019-03-04T08:29:09.294Z,12.07
2019-03-04T08:30:09.317Z,12.02
2019-03-04T08:31:09.343Z,12.02
2019-03-04T08:32:09.357Z,12.02
2019-03-04T08:33:09.381Z,12.11
2019-03-04T08:34:09.460Z,12.11
2019-03-04T08:35:09.445Z,12.23
2019-03-04T08:36:09.465Z,12.11
2019-03-04T08:37:09.473Z,12.14
2019-03-04T08:38:09.498Z,12.14
2019-03-04T08:39:09.534Z,12.18
2019-03-04T08:40:09.546Z,12.29
2019-03-04T08:41:09.570Z,12.35
2019-03-04T08:42:09.591Z,12.33
2019-03-04T08:43:09.607Z,12.45
2019-03-04T08:44:09.639Z,12.39
2019-03-04T08:45:09.661Z,12.45
2019-03-04T08:46:09.684Z,12.50
2019-03-04T08:47:09.705Z,12.43
2019-03-04T08:48:09.751Z,12.53
2019-03-04T08:49:09.759Z,12.53
2019-03-04T08:50:09.773Z,12.47
2019-03-04T08:51:09.800Z,12.62
2019-03-04T08:52:09.833Z,12.66
2019-03-04T08:53:09.862Z,12.63
2019-03-04T08:54:09.873Z,12.70
2019-03-04T08:55:09.890Z,12.73
2019-03-04T08:56:11.643Z,12.63
2019-03-04T08:57:09.949Z,12.76
2019-03-04T08:58:09.976Z,12.76
2019-03-04T08:59:10.036Z,12.69
2019-03-04T09:00:10.009Z,12.66
2019-03-04T09:01:10.029Z,12.66
2019-03-04T09:02:10.053Z,12.75
2019-03-04T09:03:10.085Z,12.83
2019-03-04T09:04:10.115Z,12.83
2019-03-04T09:05:10.125Z,12.83
2019-03-04T09:06:10.155Z,12.87
2019-03-04T09:07:10.183Z,12.83
2019-03-04T09:08:10.206Z,12.91
2019-03-04T09:09:10.225Z,12.93
2019-03-04T09:10:10.254Z,12.87
2019-03-04T09:11:10.279Z,12.93
2019-03-04T09:12:10.288Z,12.99
2019-03-04T09:13:10.320Z,13.02
2019-03-04T09:14:10.337Z,12.95
2019-03-04T09:15:10.365Z,12.91
2019-03-04T09:16:10.392Z,12.94
2019-03-04T09:17:10.685Z,12.99
2019-03-04T09:18:10.431Z,13.05
2019-03-04T09:19:10.460Z,12.93
2019-03-04T09:20:10.475Z,13.02
2019-03-04T09:21:10.498Z,13.08
2019-03-04T09:22:10.527Z,12.94
2019-03-04T09:23:10.547Z,13.06
2019-03-04T09:24:10.614Z,13.09
2019-03-04T09:25:10.599Z,13.08
2019-03-04T09:26:10.635Z,13.16
2019-03-04T09:27:10.646Z,13.13
2019-03-04T09:28:10.669Z,13.13
2019-03-04T09:29:10.689Z,13.16
2019-03-04T09:30:10.715Z,13.17
2019-03-04T09:31:10.743Z,13.17
2019-03-04T09:32:10.764Z,13.19
2019-03-04T09:33:10.778Z,13.20
2019-03-04T09:34:10.808Z,13.27
2019-03-04T09:35:10.828Z,13.27
2019-03-04T09:36:10.856Z,13.26
2019-03-04T09:37:10.874Z,13.28
2019-03-04T09:38:10.910Z,13.37
2019-03-04T09:39:10.922Z,13.42
2019-03-04T09:40:10.956Z,13.40
2019-03-04T09:41:10.974Z,13.37
2019-03-04T09:42:11.007Z,13.45
2019-03-04T09:43:11.028Z,13.40
2019-03-04T09:44:11.042Z,13.46
2019-03-04T09:45:11.069Z,13.43
2019-03-04T09:46:11.093Z,13.39
2019-03-04T09:47:11.144Z,13.43
2019-03-04T09:48:12.074Z,13.40
2019-03-04T09:49:11.162Z,13.45
2019-03-04T09:50:11.182Z,13.40
2019-03-04T09:51:11.208Z,13.46
2019-03-04T09:52:11.236Z,13.46
2019-03-04T09:53:11.258Z,13.42
2019-03-04T09:54:11.277Z,13.55
2019-03-04T09:55:11.304Z,13.58
2019-03-04T09:56:11.328Z,13.43
2019-03-04T09:57:11.354Z,13.54
2019-03-04T09:58:11.375Z,13.55
2019-03-04T09:59:11.407Z,13.55
2019-03-04T10:00:11.418Z,13.60
2019-03-04T10:01:11.443Z,13.55
2019-03-04T10:02:11.489Z,13.60
2019-03-04T10:03:11.485Z,13.55
2019-03-04T10:04:11.512Z,13.54
2019-03-04T10:05:13.392Z,13.64
2019-03-04T10:06:11.557Z,13.65
2019-03-04T10:07:11.585Z,13.65
2019-03-04T10:08:11.608Z,13.64
2019-03-04T10:09:11.634Z,13.60
2019-03-04T10:10:11.654Z,13.61
2019-03-04T10:11:11.678Z,13.67
2019-03-04T10:12:11.701Z,13.67
2019-03-04T10:13:11.725Z,13.64
2019-03-04T10:14:11.747Z,13.68
2019-03-04T10:15:11.771Z,13.70
2019-03-04T10:16:18.490Z,13.67
2019-03-04T10:17:11.822Z,13.68
2019-03-04T10:18:11.850Z,13.68
2019-03-04T10:19:11.868Z,13.71
2019-03-04T10:20:11.889Z,13.78
2019-03-04T10:21:11.916Z,13.75
2019-03-04T10:22:11.943Z,13.76
2019-03-04T10:23:11.967Z,13.80
2019-03-04T10:24:11.985Z,13.75
2019-03-04T10:25:12.013Z,13.78
2019-03-04T10:26:21.909Z,13.83
2019-03-04T10:27:12.059Z,13.78
2019-03-04T10:28:12.087Z,13.87
2019-03-04T10:29:12.100Z,13.80
2019-03-04T10:30:12.141Z,13.87
2019-03-04T10:31:12.150Z,13.91
2019-03-04T10:32:12.180Z,13.94
2019-03-04T10:33:12.204Z,14.11
2019-03-04T10:34:12.226Z,14.13
2019-03-04T10:35:12.246Z,14.79
2019-03-04T10:36:12.273Z,15.48
2019-03-04T10:37:12.301Z,15.88
2019-03-04T10:38:22.167Z,16.24
2019-03-04T10:39:12.344Z,16.89
2019-03-04T10:40:12.458Z,17.38
2019-03-04T10:41:12.417Z,17.39
2019-03-04T10:42:12.412Z,17.82
2019-03-04T10:43:12.443Z,17.75
2019-03-04T10:44:12.477Z,16.99
2019-03-04T10:45:12.498Z,17.07
2019-03-04T10:46:12.527Z,16.97
2019-03-04T10:47:12.543Z,16.95
2019-03-04T10:48:12.571Z,17.30
2019-03-04T10:49:12.611Z,17.34
2019-03-04T10:50:12.628Z,17.13
2019-03-04T10:51:12.652Z,16.77
2019-03-04T10:52:12.679Z,16.57
2019-03-04T10:53:12.704Z,16.43
2019-03-04T10:54:12.736Z,16.40
2019-03-04T10:55:12.765Z,16.18
2019-03-04T10:56:12.784Z,16.02
2019-03-04T10:57:12.806Z,16.02
2019-03-04T10:58:12.848Z,15.98
2019-03-04T10:59:12.865Z,15.99
2019-03-04T11:00:12.896Z,15.98
2019-03-04T11:01:12.910Z,15.92
2019-03-04T11:02:12.949Z,15.87
2019-03-04T11:03:12.971Z,15.90
2019-03-04T11:04:12.989Z,15.84
2019-03-04T11:05:13.025Z,15.91
2019-03-04T11:06:13.046Z,15.88
2019-03-04T11:07:13.064Z,15.87
2019-03-04T11:08:13.094Z,15.88
2019-03-04T11:09:13.121Z,15.91
2019-03-04T11:10:13.155Z,15.98
2019-03-04T11:11:13.174Z,15.96
2019-03-04T11:12:14.129Z,15.88
2019-03-04T11:13:13.215Z,15.92
2019-03-04T11:14:13.247Z,15.94
2019-03-04T11:15:13.285Z,15.94
2019-03-04T11:16:13.299Z,15.90
2019-03-04T11:17:13.329Z,15.88
2019-03-04T11:18:13.352Z,15.88
2019-03-04T11:19:13.376Z,15.76
2019-03-04T11:20:13.398Z,15.88
2019-03-04T11:21:13.419Z,15.92
2019-03-04T11:22:13.453Z,15.84
2019-03-04T11:23:15.075Z,15.92
2019-03-04T11:24:13.497Z,15.91
2019-03-04T11:25:13.525Z,15.87
2019-03-04T11:26:13.554Z,15.92
2019-03-04T11:27:13.571Z,15.92
2019-03-04T11:28:13.604Z,15.91
2019-03-04T11:29:13.623Z,15.84
2019-03-04T11:30:13.639Z,15.81
2019-03-04T11:31:13.676Z,15.81
2019-03-04T11:32:13.695Z,15.50
2019-03-04T11:33:13.730Z,14.58
2019-03-04T11:34:13.751Z,13.52
2019-03-04T11:35:13.772Z,13.08
2019-03-04T11:36:13.793Z,12.91
2019-03-04T11:37:13.816Z,12.73
2019-03-04T11:38:13.852Z,12.47
2019-03-04T11:39:13.872Z,12.35
2019-03-04T11:40:13.904Z,12.08
2019-03-04T11:41:13.919Z,12.00
2019-03-04T11:42:13.951Z,12.02
2019-03-04T11:43:13.959Z,12.08
2019-03-04T11:44:13.991Z,11.93
2019-03-04T11:45:14.015Z,11.78
2019-03-04T11:46:14.063Z,11.63
2019-03-04T11:47:14.063Z,11.62
2019-03-04T11:48:14.087Z,11.63
2019-03-04T11:49:14.115Z,11.52
2019-03-04T11:50:14.143Z,11.53
2019-03-04T11:51:14.162Z,11.60
2019-03-04T11:52:14.184Z,11.62
2019-03-04T11:53:14.211Z,11.62
2019-03-04T11:54:14.233Z,11.60
2019-03-04T11:55:14.253Z,11.59
2019-03-04T11:56:14.279Z,11.62
2019-03-04T11:57:14.336Z,11.55
2019-03-04T11:58:14.339Z,11.44
2019-03-04T11:59:14.350Z,11.51
2019-03-04T12:00:14.372Z,11.41
2019-03-04T12:01:14.393Z,11.30
2019-03-04T12:02:14.420Z,11.43
2019-03-04T12:03:14.502Z,11.38
2019-03-04T12:04:14.456Z,11.27
2019-03-04T12:05:14.497Z,11.35
2019-03-04T12:06:14.512Z,11.38
2019-03-04T12:07:14.545Z,11.27
2019-03-04T12:08:14.557Z,11.37
2019-03-04T12:09:14.581Z,11.43
2019-03-04T12:10:14.604Z,11.45
2019-03-04T12:11:14.643Z,11.44
2019-03-04T12:12:14.654Z,11.45
2019-03-04T12:13:14.684Z,11.55
2019-03-04T12:14:14.700Z,11.45
2019-03-04T12:15:14.725Z,11.56
2019-03-04T12:16:14.741Z,11.45
2019-03-04T12:17:14.765Z,11.51
2019-03-04T12:18:14.787Z,11.53
2019-03-04T12:19:14.811Z,11.65
2019-03-04T12:20:14.839Z,11.71
2019-03-04T12:21:14.859Z,11.59
2019-03-04T12:22:14.879Z,11.59
2019-03-04T12:23:14.905Z,11.70
2019-03-04T12:24:14.925Z,11.76
2019-03-04T12:25:14.951Z,11.73
2019-03-04T12:26:14.969Z,11.88
2019-03-04T12:27:14.999Z,11.80
2019-03-04T12:28:15.020Z,11.80
2019-03-04T12:29:15.048Z,11.86
2019-03-04T12:30:15.078Z,11.96
2019-03-04T12:31:15.091Z,11.88
2019-03-04T12:32:15.109Z,11.89
2019-03-04T12:33:15.140Z,11.89
2019-03-04T12:34:24.266Z,11.86
2019-03-04T12:35:15.183Z,11.86
2019-03-04T12:36:15.206Z,11.93
2019-03-04T12:37:15.227Z,11.85
2019-03-04T12:38:15.251Z,11.99
2019-03-04T12:39:15.295Z,11.95
2019-03-04T12:40:15.297Z,11.86
2019-03-04T12:41:15.317Z,11.97
2019-03-04T12:42:15.343Z,11.89
2019-03-04T12:43:15.365Z,12.00
2019-03-04T12:44:15.389Z,12.00
2019-03-04T12:45:15.429Z,12.14
2019-03-04T12:46:15.435Z,12.18
2019-03-04T12:47:16.402Z,12.25
2019-03-04T12:48:15.487Z,12.35
2019-03-04T12:49:15.504Z,12.26
2019-03-04T12:50:15.537Z,12.28
2019-03-04T12:51:22.685Z,12.26
2019-03-04T12:52:15.584Z,12.26
2019-03-04T12:53:15.603Z,12.28